createdAt,value
2017-09-17T00:01:23.767Z,99.90
2017-09-17T00:03:52.100Z,99.90
2017-09-17T00:06:20.399Z,99.90
2017-09-17T00:08:48.679Z,99.90
2017-09-17T00:11:16.989Z,99.90
2017-09-17T00:13:45.290Z,99.90
2017-09-17T00:16:13.595Z,99.90
2017-09-17T00:18:41.867Z,99.90
2017-09-17T00:21:10.182Z,99.90
2017-09-17T00:23:38.503Z,99.90
2017-09-17T00:26:06.781Z,99.90
2017-09-17T00:28:35.897Z,99.90
2017-09-17T00:31:04.176Z,99.90
2017-09-17T00:33:32.496Z,99.90
2017-09-17T00:36:01.540Z,99.90
2017-09-17T00:38:29.816Z,99.90
2017-09-17T00:40:58.931Z,99.90
2017-09-17T00:43:27.991Z,99.90
2017-09-17T00:45:56.291Z,99.90
2017-09-17T00:48:24.632Z,99.90
2017-09-17T00:50:53.000Z,99.90
2017-09-17T00:53:21.279Z,99.90
2017-09-17T00:55:50.778Z,99.90
2017-09-17T00:58:19.114Z,99.90
2017-09-17T01:00:47.415Z,99.90
2017-09-17T01:03:15.806Z,99.90
2017-09-17T01:05:44.968Z,99.90
2017-09-17T01:08:13.234Z,99.90
2017-09-17T01:10:41.518Z,99.90
2017-09-17T01:13:10.615Z,99.90
2017-09-17T01:15:38.916Z,99.90
2017-09-17T01:18:07.221Z,99.90
2017-09-17T01:20:35.493Z,99.90
2017-09-17T01:23:03.792Z,99.90
2017-09-17T01:25:32.107Z,99.90
2017-09-17T01:28:00.383Z,99.90
2017-09-17T01:30:28.686Z,99.90
2017-09-17T01:32:56.997Z,99.90
2017-09-17T01:35:25.460Z,99.90
2017-09-17T01:37:53.754Z,99.90
2017-09-17T01:40:22.828Z,99.90
2017-09-17T01:42:51.137Z,99.90
2017-09-17T01:45:19.416Z,99.90
2017-09-17T01:47:47.685Z,99.90
2017-09-17T01:50:16.018Z,99.90
2017-09-17T01:52:44.291Z,99.90
2017-09-17T01:55:12.597Z,99.90
2017-09-17T01:57:40.907Z,99.90
2017-09-17T02:00:09.211Z,99.90
2017-09-17T02:02:37.512Z,99.90
2017-09-17T02:05:05.782Z,99.90
2017-09-17T02:07:34.852Z,99.90
2017-09-17T02:10:03.155Z,99.90
2017-09-17T02:12:31.422Z,99.90
2017-09-17T02:14:59.717Z,99.90
2017-09-17T02:17:28.754Z,99.90
2017-09-17T02:19:57.063Z,99.90
2017-09-17T02:22:25.378Z,99.90
2017-09-17T02:24:53.688Z,99.90
2017-09-17T02:27:21.959Z,99.90
2017-09-17T02:29:51.858Z,99.90
2017-09-17T02:32:20.195Z,99.90
2017-09-17T02:34:48.567Z,99.90
2017-09-17T02:37:17.616Z,99.90
2017-09-17T02:39:45.923Z,99.90
2017-09-17T02:42:14.212Z,99.90
2017-09-17T02:44:42.523Z,99.90
2017-09-17T02:47:10.804Z,99.90
2017-09-17T02:49:39.867Z,99.90
2017-09-17T02:52:08.140Z,99.90
2017-09-17T02:54:36.441Z,99.90
2017-09-17T02:57:04.827Z,99.90
2017-09-17T02:59:33.876Z,99.90
2017-09-17T03:02:02.168Z,99.90
2017-09-17T03:04:30.468Z,99.90
2017-09-17T03:06:58.900Z,99.90
2017-09-17T03:09:27.206Z,99.90
2017-09-17T03:11:55.498Z,99.90
2017-09-17T03:14:23.784Z,99.90
2017-09-17T03:16:52.112Z,99.90
2017-09-17T03:19:20.389Z,99.90
2017-09-17T03:21:48.702Z,99.90
2017-09-17T03:24:16.976Z,99.90
2017-09-17T03:26:45.299Z,99.90
2017-09-17T03:29:13.602Z,99.90
2017-09-17T03:31:42.028Z,99.90
2017-09-17T03:34:10.389Z,99.90
2017-09-17T03:36:38.659Z,99.90
2017-09-17T03:39:07.715Z,99.90
2017-09-17T03:41:36.024Z,99.90
2017-09-17T03:44:04.326Z,99.90
2017-09-17T03:46:32.648Z,99.90
2017-09-17T03:49:01.075Z,99.90
2017-09-17T03:51:30.131Z,99.90
2017-09-17T03:53:58.427Z,99.90
2017-09-17T03:56:26.696Z,99.90
2017-09-17T03:58:54.998Z,99.90
2017-09-17T04:01:23.278Z,99.90
2017-09-17T04:03:51.587Z,99.90
2017-09-17T04:06:19.950Z,99.90
2017-09-17T04:08:48.280Z,99.90
2017-09-17T04:11:16.601Z,99.90
2017-09-17T04:13:44.916Z,99.90
2017-09-17T04:16:13.261Z,99.90
2017-09-17T04:18:41.536Z,99.90
2017-09-17T04:21:09.851Z,99.90
2017-09-17T04:23:38.908Z,99.90
2017-09-17T04:26:07.242Z,99.90
2017-09-17T04:28:35.527Z,99.90
2017-09-17T04:31:03.807Z,99.90
2017-09-17T04:33:32.111Z,99.90
2017-09-17T04:36:00.410Z,99.90
2017-09-17T04:38:28.768Z,99.90
2017-09-17T04:40:57.055Z,99.90
2017-09-17T04:43:25.655Z,99.90
2017-09-17T04:45:53.927Z,99.90
2017-09-17T04:48:22.242Z,99.90
2017-09-17T04:50:50.556Z,99.90
2017-09-17T04:53:18.843Z,99.90
2017-09-17T04:55:47.147Z,99.90
2017-09-17T04:58:15.484Z,99.90
2017-09-17T05:00:43.831Z,99.90
2017-09-17T05:03:12.113Z,99.90
2017-09-17T05:05:41.898Z,99.90
2017-09-17T05:08:10.195Z,99.90
2017-09-17T05:10:38.478Z,99.90
2017-09-17T05:13:06.772Z,99.90
2017-09-17T05:15:35.047Z,99.90
2017-09-17T05:18:04.127Z,99.90
2017-09-17T05:20:32.399Z,99.90
2017-09-17T05:23:00.928Z,99.90
2017-09-17T05:25:29.235Z,99.90
2017-09-17T05:27:57.573Z,99.90
2017-09-17T05:30:25.865Z,99.90
2017-09-17T05:32:54.184Z,99.90
2017-09-17T05:35:23.257Z,99.90
2017-09-17T05:37:51.599Z,99.90
2017-09-17T05:40:20.692Z,99.90
2017-09-17T05:42:48.979Z,99.90
2017-09-17T05:45:17.291Z,99.90
2017-09-17T05:47:45.572Z,99.90
2017-09-17T05:50:13.884Z,99.90
2017-09-17T05:52:42.167Z,99.90
2017-09-17T05:55:10.445Z,99.90
2017-09-17T05:57:39.500Z,99.90
2017-09-17T06:00:07.783Z,99.90
2017-09-17T06:02:36.103Z,99.90
2017-09-17T06:05:04.415Z,99.90
2017-09-17T06:07:32.707Z,99.90
2017-09-17T06:10:01.035Z,99.90
2017-09-17T06:12:29.346Z,99.90
2017-09-17T06:14:57.627Z,99.90
2017-09-17T06:17:25.983Z,99.90
2017-09-17T06:19:54.269Z,99.90
2017-09-17T06:22:22.577Z,99.90
2017-09-17T06:24:50.877Z,99.90
2017-09-17T06:27:19.174Z,99.90
2017-09-17T06:29:47.546Z,99.90
2017-09-17T06:32:15.839Z,99.90
2017-09-17T06:34:44.297Z,99.90
2017-09-17T06:37:12.611Z,99.90
2017-09-17T06:39:43.286Z,99.90
2017-09-17T06:42:11.664Z,99.90
2017-09-17T06:44:39.934Z,99.90
2017-09-17T06:47:09.062Z,99.90
2017-09-17T06:49:37.386Z,99.90
2017-09-17T06:52:06.456Z,99.90
2017-09-17T06:54:35.496Z,99.90
2017-09-17T06:57:03.817Z,99.90
2017-09-17T06:59:32.142Z,99.90
2017-09-17T07:02:01.212Z,99.90
2017-09-17T07:04:29.522Z,99.90
2017-09-17T07:06:57.839Z,99.90
2017-09-17T07:09:27.766Z,99.90
2017-09-17T07:11:56.254Z,99.90
2017-09-17T07:14:24.584Z,99.40
2017-09-17T07:16:53.643Z,99.30
2017-09-17T07:19:22.693Z,99.90
2017-09-17T07:21:50.995Z,99.90
2017-09-17T07:24:19.295Z,99.70
2017-09-17T07:26:47.649Z,99.30
2017-09-17T07:29:15.948Z,99.90
2017-09-17T07:31:44.338Z,99.90
2017-09-17T07:34:13.448Z,99.90
2017-09-17T07:36:41.735Z,99.90
2017-09-17T07:39:10.063Z,99.90
2017-09-17T07:41:38.396Z,99.90
2017-09-17T07:44:07.627Z,99.90
2017-09-17T07:46:37.055Z,99.30
2017-09-17T07:49:05.371Z,99.50
2017-09-17T07:51:37.492Z,95.90
2017-09-17T07:54:06.649Z,95.90
2017-09-17T07:56:35.759Z,95.70
2017-09-17T07:59:04.279Z,96.00
2017-09-17T08:01:33.430Z,95.10
2017-09-17T08:04:01.747Z,96.00
2017-09-17T08:06:31.823Z,97.20
2017-09-17T08:09:00.187Z,97.30
2017-09-17T08:11:28.490Z,95.50
2017-09-17T08:13:56.783Z,92.70
2017-09-17T08:16:25.119Z,92.30
2017-09-17T08:18:54.187Z,94.30
2017-09-17T08:21:23.259Z,93.70
2017-09-17T08:23:51.632Z,93.70
2017-09-17T08:26:19.941Z,93.90
2017-09-17T08:28:48.275Z,93.40
2017-09-17T08:31:16.605Z,93.30
2017-09-17T08:33:44.904Z,94.60
2017-09-17T08:36:13.212Z,92.20
2017-09-17T08:38:41.520Z,92.50
2017-09-17T08:41:11.062Z,91.60
2017-09-17T08:43:39.371Z,88.40
2017-09-17T08:46:08.922Z,90.50
2017-09-17T08:48:37.248Z,89.90
2017-09-17T08:51:08.998Z,87.00
2017-09-17T08:53:37.548Z,88.30
2017-09-17T08:56:05.850Z,89.80
2017-09-17T08:58:34.161Z,89.00
2017-09-17T09:01:03.233Z,85.10
2017-09-17T09:03:31.600Z,85.10
2017-09-17T09:05:59.915Z,84.50
2017-09-17T09:08:28.250Z,84.50
